sensor_id;sensor_type;location;lat;lon;timestamp;pressure;altitude;pressure_sealevel;temperature;humidity
63405;BME280;49541;57.840;12.306;2023-04-06T00:00:24;101220.34;;;3.02;66.29
63405;BME280;49541;57.840;12.306;2023-04-06T00:05:24;101220.03;;;2.89;66.25
63405;BME280;49541;57.840;12.306;2023-04-06T00:10:24;101215.69;;;2.88;65.94
63405;BME280;49541;57.840;12.306;2023-04-06T00:15:25;101211.78;;;2.37;66.11
63405;BME280;49541;57.840;12.306;2023-04-06T00:20:25;101213.44;;;2.39;66.32
63405;BME280;49541;57.840;12.306;2023-04-06T00:25:26;101210.00;;;2.58;65.58
63405;BME280;49541;57.840;12.306;2023-04-06T00:30:26;101205.94;;;2.71;65.34
63405;BME280;49541;57.840;12.306;2023-04-06T00:35:26;101203.03;;;2.57;65.44
63405;BME280;49541;57.840;12.306;2023-04-06T00:40:26;101205.88;;;2.52;65.54
63405;BME280;49541;57.840;12.306;2023-04-06T00:45:28;101200.41;;;2.57;65.26
63405;BME280;49541;57.840;12.306;2023-04-06T00:50:29;101190.09;;;2.52;65.02
63405;BME280;49541;57.840;12.306;2023-04-06T00:55:29;101195.28;;;2.33;64.90
63405;BME280;49541;57.840;12.306;2023-04-06T01:00:29;101198.78;;;2.13;65.94
63405;BME280;49541;57.840;12.306;2023-04-06T01:05:30;101188.50;;;2.07;66.42
63405;BME280;49541;57.840;12.306;2023-04-06T01:10:32;101187.28;;;2.16;66.02
63405;BME280;49541;57.840;12.306;2023-04-06T01:15:33;101181.75;;;2.22;66.53
63405;BME280;49541;57.840;12.306;2023-04-06T01:20:33;101183.34;;;2.26;66.67
63405;BME280;49541;57.840;12.306;2023-04-06T01:25:34;101177.56;;;2.18;66.87
63405;BME280;49541;57.840;12.306;2023-04-06T01:30:34;101170.66;;;2.15;66.82
63405;BME280;49541;57.840;12.306;2023-04-06T01:35:34;101176.81;;;1.94;67.60
63405;BME280;49541;57.840;12.306;2023-04-06T01:40:35;101179.63;;;1.67;68.51
63405;BME280;49541;57.840;12.306;2023-04-06T01:45:37;101171.06;;;1.84;68.66
63405;BME280;49541;57.840;12.306;2023-04-06T01:50:37;101158.16;;;1.57;70.08
63405;BME280;49541;57.840;12.306;2023-04-06T01:55:37;101169.25;;;1.64;70.15
63405;BME280;49541;57.840;12.306;2023-04-06T02:00:37;101171.94;;;1.62;70.00
63405;BME280;49541;57.840;12.306;2023-04-06T02:05:37;101167.13;;;1.52;71.05
63405;BME280;49541;57.840;12.306;2023-04-06T02:10:38;101174.84;;;1.55;71.59
63405;BME280;49541;57.840;12.306;2023-04-06T02:15:38;101167.63;;;1.61;71.46
63405;BME280;49541;57.840;12.306;2023-04-06T02:20:38;101167.84;;;1.77;71.10
63405;BME280;49541;57.840;12.306;2023-04-06T02:25:38;101162.66;;;1.54;71.56
63405;BME280;49541;57.840;12.306;2023-04-06T02:30:39;101165.00;;;1.61;71.26
63405;BME280;49541;57.840;12.306;2023-04-06T02:35:39;101159.22;;;1.74;70.16
63405;BME280;49541;57.840;12.306;2023-04-06T02:40:39;101167.66;;;1.82;69.74
63405;BME280;49541;57.840;12.306;2023-04-06T02:45:39;101157.28;;;1.79;69.75
63405;BME280;49541;57.840;12.306;2023-04-06T02:50:39;101155.94;;;1.69;69.88
63405;BME280;49541;57.840;12.306;2023-04-06T02:55:40;101160.41;;;1.67;69.88
63405;BME280;49541;57.840;12.306;2023-04-06T03:00:40;101156.69;;;1.72;70.28
63405;BME280;49541;57.840;12.306;2023-04-06T03:05:40;101158.38;;;1.73;69.65
63405;BME280;49541;57.840;12.306;2023-04-06T03:10:40;101153.06;;;1.75;69.76
63405;BME280;49541;57.840;12.306;2023-04-06T03:15:41;101160.91;;;1.97;69.10
63405;BME280;49541;57.840;12.306;2023-04-06T03:20:41;101153.28;;;1.70;68.67
63405;BME280;49541;57.840;12.306;2023-04-06T03:25:41;101157.63;;;1.92;68.37
63405;BME280;49541;57.840;12.306;2023-04-06T03:30:42;101160.44;;;1.87;68.32
63405;BME280;49541;57.840;12.306;2023-04-06T03:35:42;101162.16;;;1.88;68.23
63405;BME280;49541;57.840;12.306;2023-04-06T03:40:42;101168.63;;;1.79;68.58
63405;BME280;49541;57.840;12.306;2023-04-06T03:45:42;101167.09;;;1.74;68.65
63405;BME280;49541;57.840;12.306;2023-04-06T03:50:48;101173.66;;;1.63;68.83
63405;BME280;49541;57.840;12.306;2023-04-06T03:55:48;101175.75;;;1.55;69.49
63405;BME280;49541;57.840;12.306;2023-04-06T04:00:48;101174.00;;;1.54;69.32
63405;BME280;49541;57.840;12.306;2023-04-06T04:05:48;101183.97;;;1.68;68.54
63405;BME280;49541;57.840;12.306;2023-04-06T04:10:49;101179.19;;;1.78;68.29
63405;BME280;49541;57.840;12.306;2023-04-06T04:15:49;101179.19;;;1.78;68.25
63405;BME280;49541;57.840;12.306;2023-04-06T04:20:50;101186.97;;;1.81;67.74
63405;BME280;49541;57.840;12.306;2023-04-06T04:25:50;101182.13;;;1.92;67.29
63405;BME280;49541;57.840;12.306;2023-04-06T04:30:51;101183.78;;;1.73;67.74
63405;BME280;49541;57.840;12.306;2023-04-06T04:35:51;101185.66;;;1.91;67.65
63405;BME280;49541;57.840;12.306;2023-04-06T04:40:51;101185.88;;;2.07;67.37
63405;BME280;49541;57.840;12.306;2023-04-06T04:45:51;101190.50;;;1.80;67.33
63405;BME280;49541;57.840;12.306;2023-04-06T04:50:53;101200.44;;;1.94;67.78
63405;BME280;49541;57.840;12.306;2023-04-06T04:55:55;101190.00;;;1.92;68.10
63405;BME280;49541;57.840;12.306;2023-04-06T05:00:58;101195.47;;;2.08;68.04
63405;BME280;49541;57.840;12.306;2023-04-06T05:05:59;101201.91;;;2.21;68.68
63405;BME280;49541;57.840;12.306;2023-04-06T05:10:59;101207.22;;;1.99;69.36
63405;BME280;49541;57.840;12.306;2023-04-06T05:15:59;101203.81;;;2.38;69.40
63405;BME280;49541;57.840;12.306;2023-04-06T05:21:00;101203.16;;;2.13;70.04
63405;BME280;49541;57.840;12.306;2023-04-06T05:26:00;101207.63;;;2.31;70.21
63405;BME280;49541;57.840;12.306;2023-04-06T05:31:01;101214.09;;;2.24;70.04
63405;BME280;49541;57.840;12.306;2023-04-06T05:36:01;101210.81;;;2.39;70.20
63405;BME280;49541;57.840;12.306;2023-04-06T05:41:01;101214.66;;;2.51;70.24
63405;BME280;49541;57.840;12.306;2023-04-06T05:46:01;101219.72;;;2.56;70.75
63405;BME280;49541;57.840;12.306;2023-04-06T05:51:02;101216.13;;;2.58;70.66
63405;BME280;49541;57.840;12.306;2023-04-06T05:56:06;101213.88;;;2.70;70.46
63405;BME280;49541;57.840;12.306;2023-04-06T06:01:06;101211.19;;;2.90;69.92
63405;BME280;49541;57.840;12.306;2023-04-06T06:06:06;101214.97;;;2.84;69.55
63405;BME280;49541;57.840;12.306;2023-04-06T06:11:06;101213.47;;;2.79;69.57
63405;BME280;49541;57.840;12.306;2023-04-06T06:16:07;101205.19;;;2.67;69.25
63405;BME280;49541;57.840;12.306;2023-04-06T06:21:07;101212.47;;;2.81;69.95
63405;BME280;49541;57.840;12.306;2023-04-06T06:26:08;101219.88;;;2.92;70.07
63405;BME280;49541;57.840;12.306;2023-04-06T06:31:08;101215.84;;;3.04;69.39
63405;BME280;49541;57.840;12.306;2023-04-06T06:36:08;101214.41;;;2.97;70.06
63405;BME280;49541;57.840;12.306;2023-04-06T06:41:08;101230.72;;;3.24;69.18
63405;BME280;49541;57.840;12.306;2023-04-06T06:46:08;101224.88;;;2.98;69.69
63405;BME280;49541;57.840;12.306;2023-04-06T06:51:09;101226.75;;;3.15;69.90
63405;BME280;49541;57.840;12.306;2023-04-06T06:56:11;101233.66;;;3.37;69.68
63405;BME280;49541;57.840;12.306;2023-04-06T07:01:12;101226.97;;;3.48;69.54
63405;BME280;49541;57.840;12.306;2023-04-06T07:06:13;101229.44;;;3.71;69.89
63405;BME280;49541;57.840;12.306;2023-04-06T07:11:13;101237.22;;;3.91;69.47
63405;BME280;49541;57.840;12.306;2023-04-06T07:16:13;101233.63;;;4.11;69.00
63405;BME280;49541;57.840;12.306;2023-04-06T07:21:13;101232.31;;;4.55;68.66
63405;BME280;49541;57.840;12.306;2023-04-06T07:26:14;101232.06;;;4.92;67.70
63405;BME280;49541;57.840;12.306;2023-04-06T07:31:14;101234.41;;;4.65;67.45
63405;BME280;49541;57.840;12.306;2023-04-06T07:36:14;101241.00;;;4.90;67.59
63405;BME280;49541;57.840;12.306;2023-04-06T07:41:15;101239.34;;;4.71;67.80
63405;BME280;49541;57.840;12.306;2023-04-06T07:46:15;101240.34;;;4.86;67.74
63405;BME280;49541;57.840;12.306;2023-04-06T07:51:16;101239.97;;;5.10;67.42
63405;BME280;49541;57.840;12.306;2023-04-06T07:56:17;101244.81;;;5.02;67.32
63405;BME280;49541;57.840;12.306;2023-04-06T08:01:17;101244.19;;;4.97;67.45
63405;BME280;49541;57.840;12.306;2023-04-06T08:06:18;101241.44;;;4.82;68.02
63405;BME280;49541;57.840;12.306;2023-04-06T08:11:18;101241.25;;;4.85;68.41
63405;BME280;49541;57.840;12.306;2023-04-06T08:16:18;101252.78;;;4.84;68.68
63405;BME280;49541;57.840;12.306;2023-04-06T08:21:18;101254.59;;;5.00;67.81
63405;BME280;49541;57.840;12.306;2023-04-06T08:26:19;101256.06;;;4.88;68.70
63405;BME280;49541;57.840;12.306;2023-04-06T08:31:19;101259.69;;;5.03;68.39
63405;BME280;49541;57.840;12.306;2023-04-06T08:36:20;101267.94;;;4.97;68.86
63405;BME280;49541;57.840;12.306;2023-04-06T08:41:22;101266.31;;;5.27;68.80
63405;BME280;49541;57.840;12.306;2023-04-06T08:46:23;101266.56;;;5.23;67.96
63405;BME280;49541;57.840;12.306;2023-04-06T08:51:29;101270.25;;;5.03;68.68
63405;BME280;49541;57.840;12.306;2023-04-06T08:56:30;101273.00;;;5.01;69.16
63405;BME280;49541;57.840;12.306;2023-04-06T09:01:30;101279.69;;;5.24;69.22
63405;BME280;49541;57.840;12.306;2023-04-06T09:06:33;101279.09;;;5.35;69.37
63405;BME280;49541;57.840;12.306;2023-04-06T09:11:49;101286.06;;;5.85;68.79
63405;BME280;49541;57.840;12.306;2023-04-06T09:16:50;101291.25;;;5.87;68.66
63405;BME280;49541;57.840;12.306;2023-04-06T09:22:00;101297.44;;;5.54;68.99
63405;BME280;49541;57.840;12.306;2023-04-06T09:27:00;101297.84;;;5.30;69.94
63405;BME280;49541;57.840;12.306;2023-04-06T09:32:01;101294.00;;;5.03;71.39
63405;BME280;49541;57.840;12.306;2023-04-06T09:37:11;101295.88;;;5.01;73.47
63405;BME280;49541;57.840;12.306;2023-04-06T09:42:24;101306.25;;;5.21;73.15
63405;BME280;49541;57.840;12.306;2023-04-06T09:47:25;101299.38;;;5.34;73.13
63405;BME280;49541;57.840;12.306;2023-04-06T09:52:27;101309.88;;;5.36;73.76
63405;BME280;49541;57.840;12.306;2023-04-06T09:57:38;101310.59;;;5.71;73.51
63405;BME280;49541;57.840;12.306;2023-04-06T10:07:45;101314.88;;;6.06;73.75
63405;BME280;49541;57.840;12.306;2023-04-06T10:12:47;101311.22;;;6.08;72.84
63405;BME280;49541;57.840;12.306;2023-04-06T10:17:47;101315.78;;;5.89;74.06
63405;BME280;49541;57.840;12.306;2023-04-06T10:22:50;101312.91;;;6.25;74.57
63405;BME280;49541;57.840;12.306;2023-04-06T10:28:00;101309.06;;;5.83;73.51
63405;BME280;49541;57.840;12.306;2023-04-06T10:33:01;101313.34;;;6.18;72.89
63405;BME280;49541;57.840;12.306;2023-04-06T10:38:12;101313.44;;;6.16;74.04
63405;BME280;49541;57.840;12.306;2023-04-06T10:43:18;101322.44;;;6.74;71.38
63405;BME280;49541;57.840;12.306;2023-04-06T10:48:19;101317.19;;;7.03;72.96
63405;BME280;49541;57.840;12.306;2023-04-06T10:53:25;101314.84;;;7.27;71.83
63405;BME280;49541;57.840;12.306;2023-04-06T10:58:26;101317.75;;;7.94;68.85
63405;BME280;49541;57.840;12.306;2023-04-06T11:03:26;101311.97;;;8.14;67.18
63405;BME280;49541;57.840;12.306;2023-04-06T11:08:32;101310.97;;;8.44;66.84
63405;BME280;49541;57.840;12.306;2023-04-06T11:13:42;101304.13;;;8.40;65.53
63405;BME280;49541;57.840;12.306;2023-04-06T11:18:49;101308.78;;;8.64;65.40
63405;BME280;49541;57.840;12.306;2023-04-06T11:23:50;101310.94;;;9.10;63.25
63405;BME280;49541;57.840;12.306;2023-04-06T11:28:50;101305.00;;;9.32;59.76
63405;BME280;49541;57.840;12.306;2023-04-06T11:33:55;101308.28;;;9.35;60.38
63405;BME280;49541;57.840;12.306;2023-04-06T11:38:56;101312.63;;;9.62;60.74
63405;BME280;49541;57.840;12.306;2023-04-06T11:43:56;101316.97;;;9.50;60.67
63405;BME280;49541;57.840;12.306;2023-04-06T11:49:02;101320.31;;;9.28;61.26
63405;BME280;49541;57.840;12.306;2023-04-06T11:54:02;101323.03;;;9.01;63.11
63405;BME280;49541;57.840;12.306;2023-04-06T11:59:02;101327.03;;;8.68;65.21
63405;BME280;49541;57.840;12.306;2023-04-06T12:04:02;101315.47;;;8.56;65.80
63405;BME280;49541;57.840;12.306;2023-04-06T12:09:03;101329.22;;;8.89;65.29
63405;BME280;49541;57.840;12.306;2023-04-06T12:14:04;101339.22;;;9.23;64.76
63405;BME280;49541;57.840;12.306;2023-04-06T12:19:04;101344.97;;;9.30;63.70
63405;BME280;49541;57.840;12.306;2023-04-06T12:24:05;101341.66;;;8.48;63.82
63405;BME280;49541;57.840;12.306;2023-04-06T12:29:05;101332.53;;;8.11;66.48
63405;BME280;49541;57.840;12.306;2023-04-06T12:34:08;101329.59;;;8.70;65.82
63405;BME280;49541;57.840;12.306;2023-04-06T12:39:09;101330.47;;;8.83;65.84
63405;BME280;49541;57.840;12.306;2023-04-06T12:44:09;101339.66;;;9.30;64.33
63405;BME280;49541;57.840;12.306;2023-04-06T12:49:09;101338.84;;;8.77;65.32
63405;BME280;49541;57.840;12.306;2023-04-06T12:54:10;101340.38;;;8.94;65.96
63405;BME280;49541;57.840;12.306;2023-04-06T12:59:11;101332.31;;;9.21;64.77
63405;BME280;49541;57.840;12.306;2023-04-06T13:04:11;101337.66;;;9.83;62.40
63405;BME280;49541;57.840;12.306;2023-04-06T13:09:12;101332.81;;;9.52;62.35
63405;BME280;49541;57.840;12.306;2023-04-06T13:14:12;101329.94;;;9.42;63.49
63405;BME280;49541;57.840;12.306;2023-04-06T13:19:12;101325.16;;;9.60;64.37
63405;BME280;49541;57.840;12.306;2023-04-06T13:24:12;101323.47;;;9.46;64.92
63405;BME280;49541;57.840;12.306;2023-04-06T13:29:12;101331.91;;;9.90;64.42
63405;BME280;49541;57.840;12.306;2023-04-06T13:34:13;101325.56;;;9.79;64.27
63405;BME280;49541;57.840;12.306;2023-04-06T13:39:13;101333.25;;;9.46;63.56
63405;BME280;49541;57.840;12.306;2023-04-06T13:44:13;101320.38;;;9.52;63.64
63405;BME280;49541;57.840;12.306;2023-04-06T13:49:13;101323.94;;;9.40;63.46
63405;BME280;49541;57.840;12.306;2023-04-06T13:54:13;101326.25;;;9.45;63.68
63405;BME280;49541;57.840;12.306;2023-04-06T13:59:14;101328.41;;;9.76;63.91
63405;BME280;49541;57.840;12.306;2023-04-06T14:04:14;101325.44;;;10.18;61.54
63405;BME280;49541;57.840;12.306;2023-04-06T14:09:15;101327.94;;;10.32;61.27
63405;BME280;49541;57.840;12.306;2023-04-06T14:14:15;101334.41;;;10.04;60.76
63405;BME280;49541;57.840;12.306;2023-04-06T14:19:16;101340.91;;;9.50;61.17
63405;BME280;49541;57.840;12.306;2023-04-06T14:24:17;101332.31;;;9.08;61.42
63405;BME280;49541;57.840;12.306;2023-04-06T14:29:17;101318.91;;;8.84;61.59
63405;BME280;49541;57.840;12.306;2023-04-06T14:34:17;101320.72;;;9.09;60.99
63405;BME280;49541;57.840;12.306;2023-04-06T14:39:18;101321.38;;;9.13;61.39
63405;BME280;49541;57.840;12.306;2023-04-06T14:44:18;101324.53;;;9.18;61.79
63405;BME280;49541;57.840;12.306;2023-04-06T14:49:18;101325.19;;;9.21;60.71
63405;BME280;49541;57.840;12.306;2023-04-06T14:54:18;101321.88;;;9.18;60.14
63405;BME280;49541;57.840;12.306;2023-04-06T14:59:18;101317.22;;;9.21;60.68
63405;BME280;49541;57.840;12.306;2023-04-06T15:04:19;101326.03;;;9.35;60.44
63405;BME280;49541;57.840;12.306;2023-04-06T15:09:19;101322.44;;;9.36;60.73
63405;BME280;49541;57.840;12.306;2023-04-06T15:14:19;101319.84;;;9.60;59.07
63405;BME280;49541;57.840;12.306;2023-04-06T15:19:19;101324.50;;;9.69;58.72
63405;BME280;49541;57.840;12.306;2023-04-06T15:24:20;101330.44;;;9.86;59.19
63405;BME280;49541;57.840;12.306;2023-04-06T15:29:20;101321.19;;;9.78;59.88
63405;BME280;49541;57.840;12.306;2023-04-06T15:34:20;101323.13;;;10.13;59.55
63405;BME280;49541;57.840;12.306;2023-04-06T15:39:20;101335.44;;;10.14;59.81
63405;BME280;49541;57.840;12.306;2023-04-06T15:44:20;101328.41;;;10.50;58.07
63405;BME280;49541;57.840;12.306;2023-04-06T15:49:21;101334.06;;;10.45;57.99
63405;BME280;49541;57.840;12.306;2023-04-06T15:54:21;101335.34;;;10.16;58.94
63405;BME280;49541;57.840;12.306;2023-04-06T15:59:21;101328.59;;;9.99;59.95
63405;BME280;49541;57.840;12.306;2023-04-06T16:04:22;101334.19;;;10.07;59.93
63405;BME280;49541;57.840;12.306;2023-04-06T16:09:22;101338.19;;;9.89;60.27
63405;BME280;49541;57.840;12.306;2023-04-06T16:14:22;101336.69;;;9.84;60.15
63405;BME280;49541;57.840;12.306;2023-04-06T16:19:22;101341.63;;;9.65;60.84
63405;BME280;49541;57.840;12.306;2023-04-06T16:24:22;101337.47;;;9.74;60.33
63405;BME280;49541;57.840;12.306;2023-04-06T16:29:26;101333.25;;;9.46;60.80
63405;BME280;49541;57.840;12.306;2023-04-06T16:34:30;101334.75;;;9.50;61.06
63405;BME280;49541;57.840;12.306;2023-04-06T16:39:30;101337.50;;;9.35;62.67
63405;BME280;49541;57.840;12.306;2023-04-06T16:44:31;101333.47;;;9.42;62.75
63405;BME280;49541;57.840;12.306;2023-04-06T16:49:31;101331.75;;;9.67;61.82
63405;BME280;49541;57.840;12.306;2023-04-06T16:54:31;101337.38;;;9.75;61.25
63405;BME280;49541;57.840;12.306;2023-04-06T16:59:33;101338.88;;;9.54;61.54
63405;BME280;49541;57.840;12.306;2023-04-06T17:04:33;101343.16;;;9.43;61.25
63405;BME280;49541;57.840;12.306;2023-04-06T17:09:34;101349.19;;;9.46;61.07
63405;BME280;49541;57.840;12.306;2023-04-06T17:14:34;101349.44;;;9.17;62.07
63405;BME280;49541;57.840;12.306;2023-04-06T17:19:34;101353.25;;;9.26;61.90
63405;BME280;49541;57.840;12.306;2023-04-06T17:24:35;101358.31;;;8.90;63.24
63405;BME280;49541;57.840;12.306;2023-04-06T17:29:35;101366.44;;;9.27;62.46
63405;BME280;49541;57.840;12.306;2023-04-06T17:34:35;101357.78;;;8.85;63.41
63405;BME280;49541;57.840;12.306;2023-04-06T17:39:35;101370.84;;;9.01;63.25
63405;BME280;49541;57.840;12.306;2023-04-06T17:44:36;101364.34;;;8.79;63.77
63405;BME280;49541;57.840;12.306;2023-04-06T17:49:36;101368.50;;;8.84;63.83
63405;BME280;49541;57.840;12.306;2023-04-06T17:54:36;101375.41;;;8.86;63.41
63405;BME280;49541;57.840;12.306;2023-04-06T17:59:36;101379.22;;;8.69;64.05
63405;BME280;49541;57.840;12.306;2023-04-06T18:04:36;101378.19;;;8.57;64.05
63405;BME280;49541;57.840;12.306;2023-04-06T18:09:39;101393.22;;;8.44;64.61
63405;BME280;49541;57.840;12.306;2023-04-06T18:14:40;101390.38;;;8.33;65.05
63405;BME280;49541;57.840;12.306;2023-04-06T18:19:40;101406.13;;;8.21;65.08
63405;BME280;49541;57.840;12.306;2023-04-06T18:24:41;101412.56;;;8.32;64.98
63405;BME280;49541;57.840;12.306;2023-04-06T18:29:41;101404.56;;;8.60;64.42
63405;BME280;49541;57.840;12.306;2023-04-06T18:34:44;101412.00;;;8.27;65.14
63405;BME280;49541;57.840;12.306;2023-04-06T18:39:44;101414.22;;;8.06;65.54
63405;BME280;49541;57.840;12.306;2023-04-06T18:44:45;101424.81;;;7.91;66.01
63405;BME280;49541;57.840;12.306;2023-04-06T18:49:45;101428.72;;;7.86;66.45
63405;BME280;49541;57.840;12.306;2023-04-06T18:54:45;101432.44;;;7.83;66.44
63405;BME280;49541;57.840;12.306;2023-04-06T18:59:45;101443.19;;;7.66;66.63
63405;BME280;49541;57.840;12.306;2023-04-06T19:04:45;101440.22;;;7.42;66.84
63405;BME280;49541;57.840;12.306;2023-04-06T19:09:46;101445.28;;;7.16;66.96
63405;BME280;49541;57.840;12.306;2023-04-06T19:14:46;101452.56;;;7.12;66.34
63405;BME280;49541;57.840;12.306;2023-04-06T19:19:50;101461.75;;;6.91;66.45
63405;BME280;49541;57.840;12.306;2023-04-06T19:24:51;101458.72;;;6.67;66.26
63405;BME280;49541;57.840;12.306;2023-04-06T19:29:51;101466.41;;;6.40;66.26
63405;BME280;49541;57.840;12.306;2023-04-06T19:34:51;101466.03;;;6.30;66.08
63405;BME280;49541;57.840;12.306;2023-04-06T19:39:51;101464.41;;;6.11;66.27
63405;BME280;49541;57.840;12.306;2023-04-06T19:44:52;101456.38;;;5.97;65.76
63405;BME280;49541;57.840;12.306;2023-04-06T19:49:52;101459.81;;;5.82;66.25
63405;BME280;49541;57.840;12.306;2023-04-06T19:54:52;101455.84;;;5.73;65.78
63405;BME280;49541;57.840;12.306;2023-04-06T19:59:53;101464.91;;;5.51;66.02
63405;BME280;49541;57.840;12.306;2023-04-06T20:04:53;101476.56;;;5.47;66.20
63405;BME280;49541;57.840;12.306;2023-04-06T20:09:53;101476.59;;;4.93;66.85
63405;BME280;49541;57.840;12.306;2023-04-06T20:14:53;101477.16;;;5.00;66.70
63405;BME280;49541;57.840;12.306;2023-04-06T20:19:55;101486.47;;;4.71;66.19
63405;BME280;49541;57.840;12.306;2023-04-06T20:24:56;101491.22;;;4.45;66.66
63405;BME280;49541;57.840;12.306;2023-04-06T20:29:56;101490.13;;;4.49;66.53
63405;BME280;49541;57.840;12.306;2023-04-06T20:34:57;101493.28;;;4.39;66.48
63405;BME280;49541;57.840;12.306;2023-04-06T20:39:57;101492.91;;;3.89;68.05
63405;BME280;49541;57.840;12.306;2023-04-06T20:44:58;101496.91;;;3.98;68.28
63405;BME280;49541;57.840;12.306;2023-04-06T20:49:58;101494.75;;;4.06;67.42
63405;BME280;49541;57.840;12.306;2023-04-06T20:54:58;101502.38;;;4.13;66.90
63405;BME280;49541;57.840;12.306;2023-04-06T21:00:00;101509.03;;;4.02;66.74
63405;BME280;49541;57.840;12.306;2023-04-06T21:05:00;101513.06;;;3.70;67.13
63405;BME280;49541;57.840;12.306;2023-04-06T21:10:00;101508.97;;;3.63;67.16
63405;BME280;49541;57.840;12.306;2023-04-06T21:15:01;101508.97;;;3.63;67.05
63405;BME280;49541;57.840;12.306;2023-04-06T21:20:02;101515.28;;;2.96;68.29
63405;BME280;49541;57.840;12.306;2023-04-06T21:25:03;101519.81;;;3.35;67.75
63405;BME280;49541;57.840;12.306;2023-04-06T21:30:03;101524.50;;;3.28;67.28
63405;BME280;49541;57.840;12.306;2023-04-06T21:35:03;101526.56;;;3.20;67.22
63405;BME280;49541;57.840;12.306;2023-04-06T21:40:04;101526.97;;;3.31;66.67
63405;BME280;49541;57.840;12.306;2023-04-06T21:45:04;101528.91;;;3.27;66.38
63405;BME280;49541;57.840;12.306;2023-04-06T21:50:05;101531.19;;;2.93;66.75
63405;BME280;49541;57.840;12.306;2023-04-06T21:55:05;101529.00;;;2.82;66.67
63405;BME280;49541;57.840;12.306;2023-04-06T22:00:06;101533.25;;;2.62;67.01
63405;BME280;49541;57.840;12.306;2023-04-06T22:05:08;101543.81;;;2.61;67.12
63405;BME280;49541;57.840;12.306;2023-04-06T22:10:09;101548.16;;;2.62;67.01
63405;BME280;49541;57.840;12.306;2023-04-06T22:15:12;101546.97;;;2.47;66.78
63405;BME280;49541;57.840;12.306;2023-04-06T22:20:12;101554.44;;;2.34;67.21
63405;BME280;49541;57.840;12.306;2023-04-06T22:25:12;101553.09;;;2.24;67.43
63405;BME280;49541;57.840;12.306;2023-04-06T22:30:13;101553.22;;;1.44;69.69
63405;BME280;49541;57.840;12.306;2023-04-06T22:35:13;101561.47;;;1.60;69.41
63405;BME280;49541;57.840;12.306;2023-04-06T22:40:13;101555.22;;;1.64;69.21
63405;BME280;49541;57.840;12.306;2023-04-06T22:45:13;101560.19;;;1.72;68.82
63405;BME280;49541;57.840;12.306;2023-04-06T22:50:13;101565.63;;;1.66;69.18
63405;BME280;49541;57.840;12.306;2023-04-06T22:55:14;101568.53;;;1.58;68.69
63405;BME280;49541;57.840;12.306;2023-04-06T23:00:15;101563.66;;;1.47;68.73
63405;BME280;49541;57.840;12.306;2023-04-06T23:05:15;101572.94;;;1.02;70.10
63405;BME280;49541;57.840;12.306;2023-04-06T23:10:16;101573.53;;;1.12;69.72
63405;BME280;49541;57.840;12.306;2023-04-06T23:15:16;101582.25;;;1.13;69.29
63405;BME280;49541;57.840;12.306;2023-04-06T23:20:16;101584.72;;;0.89;69.49
63405;BME280;49541;57.840;12.306;2023-04-06T23:25:17;101584.50;;;0.97;69.36
63405;BME280;49541;57.840;12.306;2023-04-06T23:30:17;101588.97;;;1.21;69.01
63405;BME280;49541;57.840;12.306;2023-04-06T23:35:17;101591.47;;;1.25;68.72
63405;BME280;49541;57.840;12.306;2023-04-06T23:40:17;101591.78;;;1.15;68.40
63405;BME280;49541;57.840;12.306;2023-04-06T23:45:17;101595.53;;;1.08;68.14
63405;BME280;49541;57.840;12.306;2023-04-06T23:50:18;101593.72;;;1.10;68.19
63405;BME280;49541;57.840;12.306;2023-04-06T23:55:18;101585.41;;;0.96;68.11
